T'ai-nan, Taiwan
Current Conditions -  °F | °C
As of 12:00 AM on Wednesday 22 Oct 2014 (Local Time) from RCKH Reporting Station
Few Clouds Few Clouds  
Wind Chill: 79°   Ceiling: Unl
Heat Index: 81°   Visibility: 4mi
Dew Point: 70°   Wind: 3mph
Humidity: 74%   Direction: 40°NE
Pressure: 29.94"   Gusts: NA
Location:  22.95°N, 120.2°E
Report Text: RCKH 211600Z 04003KT 6000 FEW016 26/21 Q1014 NOSIG RMK A2996
Loading
Personal Weather Stations






























Interactive Weather Map
Tropical Storm Tracking
New forecast layout! Learn more

10-Day Weather Forecast

Advertisements
Track Severe Weather on mobile